createdAt,value
2018-08-10T00:01:08.777Z,0.00
2018-08-10T00:01:47.732Z,0.00
2018-08-10T00:02:47.655Z,0.00
2018-08-10T00:03:47.591Z,0.00
2018-08-10T00:04:47.510Z,0.00
2018-08-10T00:05:47.449Z,0.00
2018-08-10T00:07:08.355Z,0.00
2018-08-10T00:07:47.346Z,0.00
2018-08-10T00:08:47.269Z,0.00
2018-08-10T00:09:47.172Z,0.00
2018-08-10T00:10:47.090Z,0.00
2018-08-10T00:11:47.034Z,0.00
2018-08-10T00:13:07.936Z,0.00
2018-08-10T00:13:46.901Z,0.00
2018-08-10T00:14:46.817Z,0.00
2018-08-10T00:15:46.757Z,0.00
2018-08-10T00:16:46.666Z,0.00
2018-08-10T00:17:46.619Z,0.00
2018-08-10T00:19:07.515Z,0.00
2018-08-10T00:19:46.469Z,0.00
2018-08-10T00:20:46.435Z,0.00
2018-08-10T00:21:46.332Z,0.00
2018-08-10T00:22:46.252Z,0.00
2018-08-10T00:23:46.195Z,0.00
2018-08-10T00:25:07.102Z,0.00
2018-08-10T00:25:46.049Z,0.00
2018-08-10T00:26:45.968Z,0.00
2018-08-10T00:27:45.914Z,0.00
2018-08-10T00:28:45.831Z,0.00
2018-08-10T00:29:45.766Z,0.00
2018-08-10T00:31:06.671Z,0.00
2018-08-10T00:31:45.623Z,0.00
2018-08-10T00:32:45.556Z,0.00
2018-08-10T00:33:45.487Z,0.00
2018-08-10T00:34:45.410Z,0.00
2018-08-10T00:35:45.343Z,0.00
2018-08-10T00:37:06.251Z,0.00
2018-08-10T00:37:45.202Z,0.00
2018-08-10T00:38:45.129Z,0.00
2018-08-10T00:39:45.063Z,0.00
2018-08-10T00:40:44.988Z,0.00
2018-08-10T00:41:44.935Z,0.00
2018-08-10T00:43:05.829Z,0.00
2018-08-10T00:43:44.779Z,0.00
2018-08-10T00:44:44.705Z,0.00
2018-08-10T00:45:44.643Z,0.00
2018-08-10T00:46:44.567Z,0.00
2018-08-10T00:47:44.509Z,0.00
2018-08-10T00:49:05.413Z,0.00
2018-08-10T00:49:44.365Z,0.00
2018-08-10T00:50:44.293Z,0.00
2018-08-10T00:51:44.233Z,0.00
2018-08-10T00:52:44.143Z,0.00
2018-08-10T00:53:44.084Z,0.00
2018-08-10T00:55:04.986Z,0.00
2018-08-10T00:55:43.939Z,0.00
2018-08-10T00:56:43.868Z,0.00
2018-08-10T00:57:43.805Z,0.00
2018-08-10T00:58:43.727Z,0.00
2018-08-10T00:59:43.654Z,0.00
2018-08-10T01:01:04.565Z,0.00
2018-08-10T01:01:43.518Z,0.00
2018-08-10T01:02:43.444Z,0.00
2018-08-10T01:03:43.384Z,0.00
2018-08-10T01:04:43.306Z,0.00
2018-08-10T01:05:43.237Z,0.00
2018-08-10T01:07:04.143Z,0.00
2018-08-10T01:07:43.098Z,0.00
2018-08-10T01:08:43.026Z,0.00
2018-08-10T01:09:42.960Z,0.00
2018-08-10T01:10:42.876Z,0.00
2018-08-10T01:11:42.821Z,0.00
2018-08-10T01:13:03.731Z,0.00
2018-08-10T01:13:42.677Z,0.00
2018-08-10T01:14:42.596Z,0.00
2018-08-10T01:15:42.539Z,0.00
2018-08-10T01:16:42.458Z,0.00
2018-08-10T01:17:42.393Z,0.00
2018-08-10T01:19:03.354Z,0.00
2018-08-10T01:19:42.263Z,0.00
2018-08-10T01:20:42.179Z,0.00
2018-08-10T01:21:42.114Z,0.00
2018-08-10T01:22:42.035Z,0.00
2018-08-10T01:23:41.972Z,0.00
2018-08-10T01:25:02.873Z,0.00
2018-08-10T01:25:41.826Z,0.00
2018-08-10T01:26:41.757Z,0.00
2018-08-10T01:27:41.697Z,0.00
2018-08-10T01:28:41.680Z,0.00
2018-08-10T01:29:41.557Z,0.00
2018-08-10T01:31:02.451Z,0.00
2018-08-10T01:31:41.416Z,0.00
2018-08-10T01:32:41.328Z,0.00
2018-08-10T01:33:41.268Z,0.00
2018-08-10T01:34:41.215Z,0.00
2018-08-10T01:35:41.129Z,0.00
2018-08-10T01:37:02.027Z,0.00
2018-08-10T01:37:40.986Z,0.00
2018-08-10T01:38:40.906Z,0.00
2018-08-10T01:39:40.849Z,0.00
2018-08-10T01:40:40.766Z,0.00
2018-08-10T01:41:40.700Z,0.00
2018-08-10T01:43:01.604Z,0.00
2018-08-10T01:43:40.559Z,0.00
2018-08-10T01:44:40.488Z,0.00
2018-08-10T01:45:40.418Z,0.00
2018-08-10T01:46:40.344Z,0.00
2018-08-10T01:47:40.279Z,0.00
2018-08-10T01:49:01.182Z,0.00
2018-08-10T01:49:40.137Z,0.00
2018-08-10T01:50:40.059Z,0.00
2018-08-10T01:51:39.990Z,0.00
2018-08-10T01:52:39.920Z,0.00
2018-08-10T01:53:39.850Z,0.00
2018-08-10T01:55:00.753Z,0.00
2018-08-10T01:55:39.710Z,0.00
2018-08-10T01:56:39.629Z,0.00
2018-08-10T01:57:39.568Z,0.00
2018-08-10T01:58:39.492Z,0.00
2018-08-10T01:59:39.426Z,0.00
2018-08-10T02:01:00.339Z,0.00
2018-08-10T02:01:39.289Z,0.00
2018-08-10T02:02:39.205Z,0.00
2018-08-10T02:03:39.150Z,0.00
2018-08-10T02:04:39.071Z,0.00
2018-08-10T02:05:39.000Z,0.00
2018-08-10T02:06:59.910Z,0.00
2018-08-10T02:07:38.876Z,0.00
2018-08-10T02:08:38.781Z,0.00
2018-08-10T02:09:38.723Z,0.00
2018-08-10T02:10:38.646Z,0.00
2018-08-10T02:11:38.579Z,0.00
2018-08-10T02:12:59.480Z,0.00
2018-08-10T02:13:38.442Z,0.00
2018-08-10T02:14:38.363Z,0.00
2018-08-10T02:15:38.296Z,0.00
2018-08-10T02:16:38.217Z,0.00
2018-08-10T02:17:38.157Z,0.00
2018-08-10T02:18:59.058Z,0.00
2018-08-10T02:19:38.014Z,0.00
2018-08-10T02:20:37.932Z,0.00
2018-08-10T02:21:37.871Z,0.00
2018-08-10T02:22:37.794Z,0.00
2018-08-10T02:23:37.744Z,0.00
2018-08-10T02:24:58.635Z,0.00
2018-08-10T02:25:37.589Z,0.00
2018-08-10T02:26:37.507Z,0.00
2018-08-10T02:27:37.443Z,0.00
2018-08-10T02:28:37.365Z,0.00
2018-08-10T02:29:37.305Z,0.00
2018-08-10T02:30:58.215Z,0.00
2018-08-10T02:31:37.155Z,0.00
2018-08-10T02:32:37.158Z,0.00
2018-08-10T02:33:37.030Z,0.00
2018-08-10T02:34:36.951Z,0.00
2018-08-10T02:35:36.870Z,0.00
2018-08-10T02:36:57.795Z,0.00
2018-08-10T02:37:36.733Z,0.00
2018-08-10T02:38:36.676Z,0.00
2018-08-10T02:39:36.589Z,0.00
2018-08-10T02:40:36.535Z,0.00
2018-08-10T02:41:36.445Z,0.00
2018-08-10T02:42:57.367Z,0.00
2018-08-10T02:43:36.301Z,0.00
2018-08-10T02:44:36.239Z,0.00
2018-08-10T02:45:36.165Z,0.00
2018-08-10T02:46:36.104Z,0.00
2018-08-10T02:47:36.028Z,0.00
2018-08-10T02:48:56.941Z,0.00
2018-08-10T02:49:35.884Z,0.00
2018-08-10T02:50:35.817Z,0.00
2018-08-10T02:51:35.738Z,0.00
2018-08-10T02:52:35.708Z,0.00
2018-08-10T02:53:35.598Z,0.00
2018-08-10T02:54:56.516Z,0.00
2018-08-10T02:55:35.461Z,0.00
2018-08-10T02:56:35.390Z,0.00
2018-08-10T02:57:35.309Z,0.00
2018-08-10T02:58:35.251Z,0.00
2018-08-10T02:59:35.171Z,0.00
2018-08-10T03:00:56.091Z,0.00
2018-08-10T03:01:35.025Z,0.00
2018-08-10T03:02:34.984Z,0.00
2018-08-10T03:03:34.890Z,0.00
2018-08-10T03:04:34.815Z,0.00
2018-08-10T03:05:34.747Z,0.00
2018-08-10T03:06:55.659Z,0.00
2018-08-10T03:07:34.607Z,0.00
2018-08-10T03:08:34.535Z,0.00
2018-08-10T03:09:34.464Z,0.00
2018-08-10T03:10:34.394Z,0.00
2018-08-10T03:11:34.328Z,0.00
2018-08-10T03:12:55.232Z,0.00
2018-08-10T03:13:34.183Z,0.00
2018-08-10T03:14:34.107Z,0.00
2018-08-10T03:15:34.039Z,0.00
2018-08-10T03:16:33.960Z,0.00
2018-08-10T03:17:33.897Z,0.00
2018-08-10T03:18:54.798Z,0.00
2018-08-10T03:19:33.753Z,0.00
2018-08-10T03:20:33.673Z,0.00
2018-08-10T03:21:33.611Z,0.00
2018-08-10T03:22:33.537Z,0.00
2018-08-10T03:23:33.470Z,0.00
2018-08-10T03:24:54.370Z,0.00
2018-08-10T03:25:33.329Z,0.00
2018-08-10T03:26:33.247Z,0.00
2018-08-10T03:27:33.190Z,0.00
2018-08-10T03:28:33.097Z,0.00
2018-08-10T03:29:33.046Z,0.00
2018-08-10T03:30:53.950Z,0.00
2018-08-10T03:31:32.899Z,0.00
2018-08-10T03:32:32.815Z,0.00
2018-08-10T03:33:32.757Z,0.00
2018-08-10T03:34:32.679Z,0.00
2018-08-10T03:35:32.611Z,0.00
2018-08-10T03:36:53.513Z,0.00
2018-08-10T03:37:32.470Z,0.00
2018-08-10T03:38:32.390Z,0.00
2018-08-10T03:39:32.330Z,0.00
2018-08-10T03:40:32.246Z,0.00
2018-08-10T03:41:32.186Z,0.00
2018-08-10T03:42:53.090Z,0.00
2018-08-10T03:43:32.041Z,0.00
2018-08-10T03:44:31.964Z,0.00
2018-08-10T03:45:31.905Z,4.00
2018-08-10T03:46:31.815Z,0.00
2018-08-10T03:47:31.750Z,0.00
2018-08-10T03:48:52.665Z,0.00
2018-08-10T03:49:31.609Z,4.00
2018-08-10T03:50:31.542Z,0.00
2018-08-10T03:51:31.476Z,4.00
2018-08-10T03:52:31.388Z,0.00
2018-08-10T03:53:31.324Z,4.00
2018-08-10T03:54:52.225Z,0.00
2018-08-10T03:55:31.186Z,4.00
2018-08-10T03:56:31.102Z,4.00
2018-08-10T03:57:31.036Z,4.00
2018-08-10T03:58:30.957Z,4.00
2018-08-10T03:59:30.900Z,8.00
2018-08-10T04:00:51.806Z,8.00
2018-08-10T04:01:30.756Z,8.00
2018-08-10T04:02:30.673Z,4.00
2018-08-10T04:03:30.607Z,8.00
2018-08-10T04:04:30.529Z,12.00
2018-08-10T04:05:30.466Z,8.00
2018-08-10T04:06:51.375Z,12.00
2018-08-10T04:07:30.324Z,16.00
2018-08-10T04:08:30.247Z,16.00
2018-08-10T04:09:30.183Z,16.00
2018-08-10T04:10:30.097Z,16.00
2018-08-10T04:11:30.034Z,16.00
2018-08-10T04:12:50.936Z,16.00
2018-08-10T04:13:29.902Z,16.00
2018-08-10T04:14:29.811Z,16.00
2018-08-10T04:15:29.754Z,20.00
2018-08-10T04:16:29.668Z,20.00
2018-08-10T04:17:29.608Z,20.00
2018-08-10T04:18:50.509Z,20.00
2018-08-10T04:19:29.458Z,20.00
2018-08-10T04:20:29.379Z,20.00
2018-08-10T04:21:29.373Z,20.00
2018-08-10T04:22:29.236Z,24.00
2018-08-10T04:23:29.280Z,24.00
2018-08-10T04:24:50.090Z,28.00
2018-08-10T04:25:29.090Z,28.00
2018-08-10T04:26:28.953Z,28.00
2018-08-10T04:27:29.001Z,32.00
2018-08-10T04:28:28.812Z,36.00
2018-08-10T04:29:28.827Z,36.00
2018-08-10T04:30:49.654Z,36.00
2018-08-10T04:31:28.610Z,36.00
2018-08-10T04:32:28.522Z,40.00
2018-08-10T04:33:28.527Z,40.00
2018-08-10T04:34:28.376Z,40.00
2018-08-10T04:35:28.336Z,44.00
2018-08-10T04:36:49.221Z,40.00
2018-08-10T04:37:28.245Z,40.00
2018-08-10T04:38:28.112Z,44.00
2018-08-10T04:39:28.059Z,40.00
2018-08-10T04:40:27.944Z,40.00
2018-08-10T04:41:27.965Z,40.00
2018-08-10T04:42:48.790Z,40.00
2018-08-10T04:43:27.787Z,36.00
2018-08-10T04:44:27.658Z,40.00
2018-08-10T04:45:27.686Z,40.00
2018-08-10T04:46:27.514Z,44.00
2018-08-10T04:47:27.491Z,44.00
2018-08-10T04:48:48.353Z,48.00
2018-08-10T04:49:27.403Z,48.00
2018-08-10T04:50:27.230Z,52.00
2018-08-10T04:51:27.209Z,56.00
2018-08-10T04:52:27.085Z,56.00
2018-08-10T04:53:27.126Z,60.00
2018-08-10T04:54:47.928Z,64.00
2018-08-10T04:55:26.964Z,68.00
2018-08-10T04:56:26.796Z,72.00
2018-08-10T04:57:26.842Z,80.00
2018-08-10T04:58:26.650Z,88.00
2018-08-10T04:59:26.646Z,96.00
2018-08-10T05:00:47.487Z,104.00
2018-08-10T05:01:26.463Z,108.00
2018-08-10T05:02:26.368Z,108.00
2018-08-10T05:03:26.374Z,108.00
2018-08-10T05:04:26.217Z,108.00
2018-08-10T05:05:26.175Z,112.00
2018-08-10T05:06:47.053Z,108.00
2018-08-10T05:07:26.090Z,112.00
2018-08-10T05:08:25.932Z,120.00
2018-08-10T05:09:25.897Z,128.00
2018-08-10T05:10:25.790Z,144.00
2018-08-10T05:11:25.813Z,160.00
2018-08-10T05:12:46.625Z,184.00
2018-08-10T05:13:25.614Z,200.00
2018-08-10T05:14:25.494Z,212.00
2018-08-10T05:15:25.525Z,208.00
2018-08-10T05:16:25.355Z,196.00
2018-08-10T05:17:25.337Z,180.00
2018-08-10T05:18:46.190Z,172.00
2018-08-10T05:19:25.131Z,176.00
2018-08-10T05:20:25.122Z,180.00
2018-08-10T05:21:25.015Z,192.00
2018-08-10T05:22:25.036Z,208.00
2018-08-10T05:23:24.847Z,220.00
2018-08-10T05:24:45.855Z,228.00
2018-08-10T05:25:24.698Z,240.00
2018-08-10T05:26:24.654Z,244.00
2018-08-10T05:27:24.558Z,244.00
2018-08-10T05:28:24.596Z,252.00
2018-08-10T05:29:24.414Z,264.00
2018-08-10T05:30:45.387Z,272.00
2018-08-10T05:31:24.272Z,272.00
2018-08-10T05:32:24.196Z,288.00
2018-08-10T05:33:24.230Z,304.00
2018-08-10T05:34:24.060Z,324.00
2018-08-10T05:35:24.024Z,348.00
2018-08-10T05:36:44.890Z,368.00
2018-08-10T05:37:23.930Z,380.00
2018-08-10T05:38:23.763Z,392.00
2018-08-10T05:39:23.745Z,408.00
2018-08-10T05:40:23.618Z,412.00
2018-08-10T05:41:23.550Z,404.00
2018-08-10T05:42:44.545Z,400.00
2018-08-10T05:43:23.400Z,404.00
2018-08-10T05:44:23.362Z,416.00
2018-08-10T05:45:23.254Z,412.00
2018-08-10T05:46:23.245Z,404.00
2018-08-10T05:47:23.113Z,404.00
2018-08-10T05:48:44.060Z,396.00
2018-08-10T05:49:22.970Z,388.00
2018-08-10T05:50:23.087Z,380.00
2018-08-10T05:51:22.820Z,384.00
2018-08-10T05:52:22.832Z,412.00
2018-08-10T05:53:22.675Z,432.00
2018-08-10T05:54:43.690Z,444.00
2018-08-10T05:55:22.536Z,448.00
2018-08-10T05:56:22.610Z,456.00
2018-08-10T05:57:22.395Z,468.00
2018-08-10T05:58:22.520Z,476.00
2018-08-10T05:59:22.258Z,472.00
2018-08-10T06:00:43.235Z,472.00
2018-08-10T06:01:22.234Z,456.00
2018-08-10T06:02:22.029Z,440.00
2018-08-10T06:03:22.172Z,452.00
2018-08-10T06:04:21.883Z,448.00
2018-08-10T06:05:21.963Z,440.00
2018-08-10T06:06:42.728Z,428.00
2018-08-10T06:07:21.870Z,412.00
2018-08-10T06:08:21.592Z,392.00
2018-08-10T06:09:21.687Z,380.00
2018-08-10T06:10:21.462Z,384.00
2018-08-10T06:11:21.585Z,400.00
2018-08-10T06:12:42.344Z,416.00
2018-08-10T06:13:21.396Z,436.00
2018-08-10T06:14:21.163Z,444.00
2018-08-10T06:15:21.217Z,444.00
2018-08-10T06:16:21.020Z,452.00
2018-08-10T06:17:21.115Z,456.00
2018-08-10T06:18:41.858Z,460.00
2018-08-10T06:19:20.930Z,464.00
2018-08-10T06:20:20.732Z,464.00
2018-08-10T06:21:20.840Z,472.00
2018-08-10T06:22:20.588Z,480.00
2018-08-10T06:23:20.544Z,488.00
2018-08-10T06:24:41.426Z,492.00
2018-08-10T06:25:20.556Z,484.00
2018-08-10T06:26:20.293Z,456.00
2018-08-10T06:27:20.369Z,440.00
2018-08-10T06:28:20.188Z,424.00
2018-08-10T06:29:20.275Z,412.00
2018-08-10T06:30:40.990Z,412.00
2018-08-10T06:31:19.945Z,420.00
2018-08-10T06:32:19.990Z,432.00
2018-08-10T06:33:19.797Z,448.00
2018-08-10T06:34:19.900Z,452.00
2018-08-10T06:35:19.648Z,460.00
2018-08-10T06:36:40.714Z,456.00
2018-08-10T06:37:19.514Z,452.00
2018-08-10T06:38:19.624Z,428.00
2018-08-10T06:39:19.358Z,404.00
2018-08-10T06:40:19.434Z,380.00
2018-08-10T06:41:19.226Z,356.00
2018-08-10T06:42:40.242Z,324.00
2018-08-10T06:43:19.075Z,308.00
2018-08-10T06:44:19.162Z,296.00
2018-08-10T06:45:18.946Z,288.00
2018-08-10T06:46:19.063Z,280.00
2018-08-10T06:47:18.786Z,272.00
2018-08-10T06:48:39.710Z,264.00
2018-08-10T06:49:18.776Z,260.00
2018-08-10T06:50:18.634Z,256.00
2018-08-10T06:51:18.702Z,244.00
2018-08-10T06:52:18.421Z,232.00
2018-08-10T06:53:18.531Z,220.00
2018-08-10T06:54:39.261Z,208.00
2018-08-10T06:55:18.201Z,196.00
2018-08-10T06:56:18.143Z,192.00
2018-08-10T06:57:18.224Z,184.00
2018-08-10T06:58:17.990Z,176.00
2018-08-10T06:59:18.031Z,172.00
2018-08-10T07:00:38.960Z,168.00
2018-08-10T07:01:17.945Z,168.00
2018-08-10T07:02:17.696Z,168.00
2018-08-10T07:03:17.751Z,172.00
2018-08-10T07:04:17.553Z,172.00
2018-08-10T07:05:18.589Z,172.00
2018-08-10T07:06:38.395Z,176.00
2018-08-10T07:07:17.383Z,184.00
2018-08-10T07:08:17.280Z,188.00
2018-08-10T07:09:18.415Z,204.00
2018-08-10T07:10:17.125Z,220.00
2018-08-10T07:11:17.187Z,240.00
2018-08-10T07:12:37.961Z,264.00
2018-08-10T07:13:17.453Z,284.00
2018-08-10T07:14:17.011Z,308.00
2018-08-10T07:15:16.760Z,324.00
2018-08-10T07:16:16.812Z,332.00
2018-08-10T07:17:16.620Z,340.00
2018-08-10T07:18:37.719Z,352.00
2018-08-10T07:19:16.471Z,352.00
2018-08-10T07:20:16.437Z,356.00
2018-08-10T07:21:16.334Z,352.00
2018-08-10T07:22:16.449Z,356.00
2018-08-10T07:23:16.179Z,356.00
2018-08-10T07:24:37.248Z,352.00
2018-08-10T07:25:16.046Z,332.00
2018-08-10T07:26:15.960Z,324.00
2018-08-10T07:27:16.160Z,324.00
2018-08-10T07:28:15.824Z,332.00
2018-08-10T07:29:15.886Z,344.00
2018-08-10T07:30:36.659Z,360.00
2018-08-10T07:31:15.689Z,384.00
2018-08-10T07:32:15.529Z,412.00
2018-08-10T07:33:15.605Z,452.00
2018-08-10T07:34:15.390Z,484.00
2018-08-10T07:35:15.519Z,500.00
2018-08-10T07:36:36.217Z,504.00
2018-08-10T07:37:15.319Z,508.00
2018-08-10T07:38:15.093Z,520.00
2018-08-10T07:39:15.130Z,536.00
2018-08-10T07:40:14.948Z,548.00
2018-08-10T07:41:14.877Z,572.00
2018-08-10T07:42:35.789Z,608.00
2018-08-10T07:43:14.950Z,772.00
2018-08-10T07:44:14.659Z,720.00
2018-08-10T07:45:14.760Z,704.00
2018-08-10T07:46:14.514Z,692.00
2018-08-10T07:47:14.677Z,660.00
2018-08-10T07:48:35.355Z,636.00
2018-08-10T07:49:14.480Z,680.00
2018-08-10T07:50:14.222Z,740.00
2018-08-10T07:51:14.306Z,668.00
2018-08-10T07:52:14.154Z,648.00
2018-08-10T07:53:14.207Z,640.00
2018-08-10T07:54:34.920Z,624.00
2018-08-10T07:55:14.015Z,580.00
2018-08-10T07:56:13.791Z,564.00
2018-08-10T07:57:13.922Z,572.00
2018-08-10T07:58:13.658Z,600.00
2018-08-10T07:59:13.584Z,652.00
2018-08-10T08:00:34.487Z,688.00
2018-08-10T08:01:13.556Z,724.00
2018-08-10T08:02:13.397Z,756.00
2018-08-10T08:03:13.865Z,780.00
2018-08-10T08:04:13.953Z,808.00
2018-08-10T08:05:13.259Z,816.00
2018-08-10T08:06:34.112Z,792.00
2018-08-10T08:07:13.070Z,792.00
2018-08-10T08:08:12.927Z,792.00
2018-08-10T08:09:12.877Z,772.00
2018-08-10T08:10:12.781Z,736.00
2018-08-10T08:11:12.795Z,700.00
2018-08-10T08:12:33.621Z,668.00
2018-08-10T08:13:12.618Z,640.00
2018-08-10T08:14:12.496Z,620.00
2018-08-10T08:15:12.511Z,608.00
2018-08-10T08:16:12.350Z,596.00
2018-08-10T08:17:12.325Z,584.00
2018-08-10T08:18:33.213Z,572.00
2018-08-10T08:19:12.233Z,568.00
2018-08-10T08:20:12.088Z,576.00
2018-08-10T08:21:12.044Z,592.00
2018-08-10T08:22:11.915Z,608.00
2018-08-10T08:23:11.951Z,624.00
2018-08-10T08:24:32.751Z,632.00
2018-08-10T08:25:11.696Z,632.00
2018-08-10T08:26:11.630Z,636.00
2018-08-10T08:27:11.790Z,644.00
2018-08-10T08:28:11.489Z,660.00
2018-08-10T08:29:11.480Z,688.00
2018-08-10T08:30:32.320Z,724.00
2018-08-10T08:31:11.394Z,768.00
2018-08-10T08:32:11.191Z,836.00
2018-08-10T08:33:11.205Z,820.00
2018-08-10T08:34:11.058Z,796.00
2018-08-10T08:35:11.222Z,780.00
2018-08-10T08:36:31.893Z,780.00
2018-08-10T08:37:10.926Z,808.00
2018-08-10T08:38:10.763Z,848.00
2018-08-10T08:39:10.685Z,880.00
2018-08-10T08:40:10.618Z,908.00
2018-08-10T08:41:10.638Z,964.00
2018-08-10T08:42:31.461Z,948.00
2018-08-10T08:43:10.433Z,964.00
2018-08-10T08:44:10.328Z,1168.00
2018-08-10T08:45:10.261Z,1120.00
2018-08-10T08:46:10.357Z,1220.00
2018-08-10T08:47:10.173Z,1332.00
2018-08-10T08:48:31.022Z,1200.00
2018-08-10T08:49:09.976Z,1128.00
2018-08-10T08:50:09.939Z,1104.00
2018-08-10T08:51:09.838Z,1128.00
2018-08-10T08:52:09.759Z,1084.00
2018-08-10T08:53:09.695Z,1056.00
2018-08-10T08:54:30.599Z,1036.00
2018-08-10T08:55:09.565Z,1060.00
2018-08-10T08:56:09.472Z,1016.00
2018-08-10T08:57:09.452Z,980.00
2018-08-10T08:58:09.325Z,960.00
2018-08-10T08:59:09.260Z,964.00
2018-08-10T09:00:30.166Z,1016.00
2018-08-10T09:01:09.117Z,1104.00
2018-08-10T09:02:09.038Z,1184.00
2018-08-10T09:03:08.977Z,1196.00
2018-08-10T09:04:08.898Z,1200.00
2018-08-10T09:05:08.834Z,1228.00
2018-08-10T09:06:29.748Z,1448.00
2018-08-10T09:07:08.692Z,1140.00
2018-08-10T09:08:08.613Z,1100.00
2018-08-10T09:09:08.554Z,1228.00
2018-08-10T09:10:08.518Z,1152.00
2018-08-10T09:11:08.402Z,1052.00
2018-08-10T09:12:29.314Z,1132.00
2018-08-10T09:13:08.255Z,1100.00
2018-08-10T09:14:08.188Z,1432.00
2018-08-10T09:15:08.108Z,1108.00
2018-08-10T09:16:08.044Z,1128.00
2018-08-10T09:17:08.066Z,1116.00
2018-08-10T09:18:28.891Z,1104.00
2018-08-10T09:19:07.824Z,1196.00
2018-08-10T09:20:07.787Z,1156.00
2018-08-10T09:21:07.686Z,1152.00
2018-08-10T09:22:07.621Z,1136.00
2018-08-10T09:23:07.540Z,1224.00
2018-08-10T09:24:28.460Z,1152.00
2018-08-10T09:25:07.402Z,1208.00
2018-08-10T09:26:07.337Z,1392.00
2018-08-10T09:27:07.253Z,1756.00
2018-08-10T09:28:07.191Z,1620.00
2018-08-10T09:29:07.127Z,1480.00
2018-08-10T09:30:28.031Z,2420.00
2018-08-10T09:31:06.969Z,4100.00
2018-08-10T09:32:06.917Z,3772.00
2018-08-10T09:33:06.849Z,3320.00
2018-08-10T09:34:06.764Z,3920.00
2018-08-10T09:35:06.685Z,2624.00
2018-08-10T09:36:27.682Z,2216.00
2018-08-10T09:37:06.551Z,3556.00
2018-08-10T09:38:06.493Z,2864.00
2018-08-10T09:39:06.407Z,2940.00
2018-08-10T09:40:06.359Z,2488.00
2018-08-10T09:41:06.348Z,2668.00
2018-08-10T09:42:27.178Z,2564.00
2018-08-10T09:43:06.127Z,1828.00
2018-08-10T09:44:06.057Z,1452.00
2018-08-10T09:45:05.999Z,1576.00
2018-08-10T09:46:05.910Z,1704.00
2018-08-10T09:47:05.848Z,1600.00
2018-08-10T09:48:26.750Z,1512.00
2018-08-10T09:49:05.713Z,1508.00
2018-08-10T09:50:05.633Z,1604.00
2018-08-10T09:51:05.563Z,1612.00
2018-08-10T09:52:05.493Z,1668.00
2018-08-10T09:53:05.433Z,2016.00
2018-08-10T09:54:26.337Z,1912.00
2018-08-10T09:55:05.286Z,1580.00
2018-08-10T09:56:05.211Z,1400.00
2018-08-10T09:57:05.146Z,1312.00
2018-08-10T09:58:05.068Z,1288.00
2018-08-10T09:59:05.003Z,1256.00
2018-08-10T10:00:25.915Z,1264.00
2018-08-10T10:01:04.863Z,1268.00
2018-08-10T10:02:04.788Z,1256.00
2018-08-10T10:03:04.725Z,1208.00
2018-08-10T10:04:04.653Z,1160.00
2018-08-10T10:05:04.592Z,1156.00
2018-08-10T10:06:25.486Z,1092.00
2018-08-10T10:07:04.538Z,1080.00
2018-08-10T10:08:04.376Z,1096.00
2018-08-10T10:09:04.336Z,1148.00
2018-08-10T10:10:04.228Z,1344.00
2018-08-10T10:11:04.162Z,1208.00
2018-08-10T10:12:25.074Z,1140.00
2018-08-10T10:13:04.028Z,1096.00
2018-08-10T10:14:03.948Z,1068.00
2018-08-10T10:15:03.979Z,1064.00
2018-08-10T10:16:03.813Z,1072.00
2018-08-10T10:17:03.785Z,1088.00
2018-08-10T10:18:24.654Z,1104.00
2018-08-10T10:19:03.812Z,1124.00
2018-08-10T10:20:03.527Z,1124.00
2018-08-10T10:21:03.546Z,1084.00
2018-08-10T10:22:03.400Z,1044.00
2018-08-10T10:23:03.417Z,1008.00
2018-08-10T10:24:24.231Z,976.00
2018-08-10T10:25:03.231Z,948.00
2018-08-10T10:26:03.107Z,924.00
2018-08-10T10:27:03.055Z,916.00
2018-08-10T10:28:02.970Z,920.00
2018-08-10T10:29:02.943Z,920.00
2018-08-10T10:30:23.810Z,912.00
2018-08-10T10:31:02.779Z,888.00
2018-08-10T10:32:02.695Z,856.00
2018-08-10T10:33:02.620Z,828.00
2018-08-10T10:34:02.569Z,796.00
2018-08-10T10:35:02.483Z,764.00
2018-08-10T10:36:23.422Z,736.00
2018-08-10T10:37:02.335Z,716.00
2018-08-10T10:38:02.338Z,696.00
2018-08-10T10:39:02.197Z,692.00
2018-08-10T10:40:02.254Z,700.00
2018-08-10T10:41:02.059Z,716.00
2018-08-10T10:42:22.969Z,724.00
2018-08-10T10:43:02.017Z,724.00
2018-08-10T10:44:01.849Z,728.00
2018-08-10T10:45:01.823Z,740.00
2018-08-10T10:46:01.701Z,760.00
2018-08-10T10:47:01.732Z,780.00
2018-08-10T10:48:22.548Z,804.00
2018-08-10T10:49:01.542Z,832.00
2018-08-10T10:50:01.424Z,852.00
2018-08-10T10:51:01.460Z,864.00
2018-08-10T10:52:01.285Z,872.00
2018-08-10T10:53:01.262Z,876.00
2018-08-10T10:54:22.129Z,896.00
2018-08-10T10:55:01.175Z,920.00
2018-08-10T10:56:01.005Z,960.00
2018-08-10T10:57:01.053Z,964.00
2018-08-10T10:58:00.863Z,940.00
2018-08-10T10:59:00.890Z,924.00
2018-08-10T11:00:21.710Z,920.00
2018-08-10T11:01:00.703Z,928.00
2018-08-10T11:02:00.579Z,928.00
2018-08-10T11:03:00.612Z,928.00
2018-08-10T11:04:00.442Z,928.00
2018-08-10T11:05:00.424Z,900.00
2018-08-10T11:06:21.309Z,872.00
2018-08-10T11:07:00.335Z,868.00
2018-08-10T11:08:00.165Z,888.00
2018-08-10T11:09:00.144Z,944.00
2018-08-10T11:10:00.036Z,1036.00
2018-08-10T11:11:00.051Z,1184.00
2018-08-10T11:12:20.879Z,2060.00
2018-08-10T11:12:59.860Z,1528.00
2018-08-10T11:13:59.741Z,2800.00
2018-08-10T11:14:59.771Z,3296.00
2018-08-10T11:15:59.602Z,3344.00
2018-08-10T11:16:59.580Z,2540.00
2018-08-10T11:18:20.444Z,2136.00
2018-08-10T11:18:59.491Z,1456.00
2018-08-10T11:19:59.321Z,1284.00
2018-08-10T11:20:59.297Z,1044.00
2018-08-10T11:21:59.177Z,1012.00
2018-08-10T11:22:59.255Z,1080.00
2018-08-10T11:24:20.031Z,1372.00
2018-08-10T11:24:59.028Z,1240.00
2018-08-10T11:25:58.973Z,1184.00
2018-08-10T11:26:58.937Z,1416.00
2018-08-10T11:27:58.767Z,1476.00
2018-08-10T11:28:58.740Z,1492.00
2018-08-10T11:30:19.726Z,1208.00
2018-08-10T11:30:58.653Z,996.00
2018-08-10T11:31:58.528Z,1316.00
2018-08-10T11:32:58.456Z,2124.00
2018-08-10T11:33:58.346Z,2124.00
2018-08-10T11:34:58.370Z,2520.00
2018-08-10T11:36:19.205Z,1884.00
2018-08-10T11:36:58.183Z,2296.00
2018-08-10T11:37:58.072Z,1632.00
2018-08-10T11:38:58.093Z,1228.00
2018-08-10T11:39:57.935Z,1184.00
2018-08-10T11:40:57.949Z,1128.00
2018-08-10T11:42:18.768Z,1356.00
2018-08-10T11:42:57.824Z,2808.00
2018-08-10T11:43:57.645Z,2752.00
2018-08-10T11:44:57.621Z,2756.00
2018-08-10T11:45:57.514Z,2728.00
2018-08-10T11:46:57.530Z,2684.00
2018-08-10T11:48:18.368Z,964.00
2018-08-10T11:48:57.344Z,2644.00
2018-08-10T11:49:57.270Z,944.00
2018-08-10T11:50:57.253Z,940.00
2018-08-10T11:51:57.098Z,1148.00
2018-08-10T11:52:57.066Z,1020.00
2018-08-10T11:54:17.943Z,2228.00
2018-08-10T11:54:56.966Z,1288.00
2018-08-10T11:55:56.823Z,912.00
2018-08-10T11:56:56.778Z,1044.00
2018-08-10T11:57:56.690Z,2464.00
2018-08-10T11:58:57.139Z,2512.00
2018-08-10T12:00:18.021Z,980.00
2018-08-10T12:00:56.500Z,892.00
2018-08-10T12:01:56.451Z,900.00
2018-08-10T12:02:58.453Z,872.00
2018-08-10T12:03:56.277Z,864.00
2018-08-10T12:04:56.317Z,908.00
2018-08-10T12:06:17.134Z,1324.00
2018-08-10T12:06:56.125Z,1272.00
2018-08-10T12:07:56.003Z,968.00
2018-08-10T12:08:56.039Z,1036.00
2018-08-10T12:09:55.867Z,1048.00
2018-08-10T12:10:55.849Z,1132.00
2018-08-10T12:12:16.713Z,948.00
2018-08-10T12:12:55.828Z,944.00
2018-08-10T12:13:55.584Z,1024.00
2018-08-10T12:14:55.578Z,896.00
2018-08-10T12:15:55.452Z,944.00
2018-08-10T12:16:55.478Z,988.00
2018-08-10T12:18:16.296Z,1004.00
2018-08-10T12:18:55.301Z,936.00
2018-08-10T12:19:55.190Z,892.00
2018-08-10T12:20:55.198Z,832.00
2018-08-10T12:21:55.119Z,828.00
2018-08-10T12:22:54.979Z,836.00
2018-08-10T12:24:16.012Z,892.00
2018-08-10T12:24:54.831Z,1000.00
2018-08-10T12:25:55.352Z,1556.00
2018-08-10T12:26:54.849Z,1140.00
2018-08-10T12:27:54.742Z,1188.00
2018-08-10T12:28:54.583Z,1188.00
2018-08-10T12:30:15.676Z,1180.00
2018-08-10T12:30:54.437Z,1172.00
2018-08-10T12:31:54.483Z,1168.00
2018-08-10T12:32:54.320Z,1288.00
2018-08-10T12:33:54.261Z,1224.00
2018-08-10T12:34:54.150Z,1356.00
2018-08-10T12:36:15.211Z,1232.00
2018-08-10T12:36:54.029Z,1176.00
2018-08-10T12:37:53.981Z,1000.00
2018-08-10T12:38:53.905Z,1336.00
2018-08-10T12:39:53.926Z,1080.00